TimeEDT,TemperatureF,Dew PointF,Humidity,Sea Level PressureIn,VisibilityMPH,Wind Direction,Wind SpeedMPH,Gust SpeedMPH,PrecipitationIn,Events,Conditions,WindDirDegrees,DateUTC
12:04 AM,46.4,42.8,87,30.06,10.0,North,10.4,-,0.00,Rain,Light Rain,10,2012-10-06 04:04:00
12:35 AM,46.4,42.8,87,30.07,9.0,North,10.4,18.4,0.00,Rain,Light Rain,10,2012-10-06 04:35:00
12:49 AM,46.4,42.8,87,30.05,10.0,NNE,9.2,-,0.00,Rain,Light Rain,20,2012-10-06 04:49:00
12:53 AM,45.0,42.1,90,30.06,10.0,North,10.4,-,0.00,Rain,Light Rain,10,2012-10-06 04:53:00
1:53 AM,45.0,42.1,90,30.07,10.0,NNW,6.9,-,0.16,Rain,Light Rain,330,2012-10-06 05:53:00
2:01 AM,44.6,41.0,87,30.07,10.0,NNW,11.5,-,0.00,Rain,Light Rain,330,2012-10-06 06:01:00
2:53 AM,45.0,41.0,86,30.08,10.0,Variable,6.9,-,0.00,,Overcast,0,2012-10-06 06:53:00
3:53 AM,44.1,41.0,89,30.09,10.0,Variable,3.5,-,N/A,,Overcast,0,2012-10-06 07:53:00
4:26 AM,44.6,39.2,81,30.09,10.0,WNW,5.8,-,N/A,,Overcast,290,2012-10-06 08:26:00
4:53 AM,44.1,39.0,82,30.08,10.0,NW,3.5,-,N/A,,Mostly Cloudy,310,2012-10-06 08:53:00
5:53 AM,43.0,39.0,86,30.11,10.0,WNW,8.1,-,N/A,,Clear,300,2012-10-06 09:53:00
6:53 AM,42.1,37.0,82,30.12,10.0,West,5.8,-,N/A,,Clear,280,2012-10-06 10:53:00
7:53 AM,41.0,37.0,86,30.15,10.0,West,3.5,-,N/A,,Clear,280,2012-10-06 11:53:00
8:53 AM,43.0,36.0,76,30.17,10.0,West,5.8,-,N/A,,Clear,260,2012-10-06 12:53:00
9:53 AM,46.0,36.0,68,30.19,10.0,Calm,Calm,-,N/A,,Clear,0,2012-10-06 13:53:00
10:53 AM,48.0,37.0,66,30.18,10.0,Variable,4.6,-,N/A,,Clear,0,2012-10-06 14:53:00
11:53 AM,51.1,37.0,59,30.17,10.0,West,8.1,-,N/A,,Clear,280,2012-10-06 15:53:00
12:53 PM,53.1,35.1,50,30.17,10.0,WNW,4.6,-,N/A,,Clear,290,2012-10-06 16:53:00
1:53 PM,55.4,35.6,47,30.12,10.0,West,4.6,-,N/A,,Clear,280,2012-10-06 17:53:00
2:53 PM,57.0,34.0,42,30.10,10.0,WSW,8.1,-,N/A,,Clear,250,2012-10-06 18:53:00
3:53 PM,55.9,30.9,39,30.11,10.0,West,8.1,-,N/A,,Clear,260,2012-10-06 19:53:00
4:53 PM,57.9,32.0,37,30.10,10.0,WNW,5.8,-,N/A,,Clear,300,2012-10-06 20:53:00
5:53 PM,55.9,32.0,40,30.11,10.0,West,4.6,-,N/A,,Clear,280,2012-10-06 21:53:00
6:53 PM,53.6,30.2,41,30.12,10.0,West,8.1,-,N/A,,Clear,270,2012-10-06 22:53:00
7:53 PM,53.1,33.1,47,30.14,10.0,WNW,4.6,-,N/A,,Clear,300,2012-10-06 23:53:00
8:53 PM,53.1,33.1,47,30.15,10.0,NW,6.9,-,N/A,,Clear,320,2012-10-07 00:53:00
9:53 PM,52.0,34.0,50,30.14,10.0,NNW,6.9,-,N/A,,Scattered Clouds,340,2012-10-07 01:53:00
10:53 PM,51.1,33.1,50,30.16,10.0,North,9.2,-,N/A,,Overcast,350,2012-10-07 02:53:00
11:53 PM,50.0,36.0,59,30.15,10.0,North,6.9,-,0.00,Rain,Light Rain,10,2012-10-07 03:53:00